To NAV CANADA Home Page Login to a new session Search on AWWS site Feedback and Comments Disclaimer Vers la page française équivalente Tips FAQ What's new on the site To the Forecasts and Observations / NOTAM section To "File a Flight Plan" website Publications and other links Update of the User's profile FIC Telephone Numbers My Weather Data Folder Route Weather Data Regional Weather Data Local Weather Data To the Forecasts and Observations / NOTAM section
Request Generated 07/30/2015 at 18:10:12 UTC . Weather information available at that time is displayed.

METAR/TAF

ARVIAT/NU    

METAR CYEK 301800Z 02008KT 15SM SCT036 OVC044 14/12 A2968 RMK CU3SC5
SLP051 DENSITY ALT 200FT=
METAR CYEK 301700Z 04013KT 15SM BKN041 BKN075 14/12 A2968 RMK SC6AC1
SLP050 DENSITY ALT 200FT=
SPECI CYEK 301601Z 02012KT 15SM FEW035 BKN044 16/12 A2968 RMK CU2SC5
SLP050 DENSITY ALT 300FT=

TAF CYEK 301738Z 3018/3106 02012KT P6SM SCT020 BKN040 TEMPO 3018/3106
P6SM -RA BKN020 BKN040
RMK NXT FCST BY 310000Z=
Your time UTC time
Weather data provided by Environment Canada and NAV CANADA